createdAt,value
2018-11-05T00:00:44.309Z,13.60
2018-11-05T00:01:49.809Z,13.30
2018-11-05T00:02:55.324Z,13.70
2018-11-05T00:04:00.825Z,13.50
2018-11-05T00:05:07.348Z,14.30
2018-11-05T00:06:11.841Z,13.30
2018-11-05T00:07:17.368Z,14.20
2018-11-05T00:08:22.861Z,14.70
2018-11-05T00:09:28.364Z,13.70
2018-11-05T00:10:33.878Z,13.90
2018-11-05T00:11:40.389Z,14.40
2018-11-05T00:12:44.891Z,14.20
2018-11-05T00:13:50.409Z,13.20
2018-11-05T00:14:55.913Z,13.20
2018-11-05T00:16:01.432Z,12.70
2018-11-05T00:17:06.937Z,13.80
2018-11-05T00:18:13.447Z,13.70
2018-11-05T00:19:17.950Z,12.80
2018-11-05T00:20:23.455Z,13.50
2018-11-05T00:21:28.956Z,12.70
2018-11-05T00:22:34.459Z,13.30
2018-11-05T00:23:39.989Z,13.40
2018-11-05T00:24:46.487Z,13.30
2018-11-05T00:25:51.002Z,12.80
2018-11-05T00:26:56.494Z,13.00
2018-11-05T00:28:02.005Z,12.90
2018-11-05T00:29:07.522Z,12.40
2018-11-05T00:30:13.035Z,13.10
2018-11-05T00:31:19.532Z,12.50
2018-11-05T00:32:24.056Z,13.00
2018-11-05T00:33:29.535Z,13.20
2018-11-05T00:34:35.047Z,12.70
2018-11-05T00:35:40.554Z,12.90
2018-11-05T00:36:46.066Z,12.80
2018-11-05T00:37:52.589Z,13.50
2018-11-05T00:38:57.073Z,13.90
2018-11-05T00:40:02.584Z,13.40
2018-11-05T00:41:08.108Z,13.50
2018-11-05T00:42:13.609Z,13.20
2018-11-05T00:43:19.109Z,12.70
2018-11-05T00:44:25.659Z,12.90
2018-11-05T00:45:30.127Z,13.30
2018-11-05T00:46:35.635Z,13.30
2018-11-05T00:47:41.148Z,13.20
2018-11-05T00:48:46.644Z,13.10
2018-11-05T00:49:52.155Z,13.30
2018-11-05T00:50:58.679Z,13.80
2018-11-05T00:52:03.187Z,14.30
2018-11-05T00:53:08.680Z,13.70
2018-11-05T00:54:14.202Z,14.20
2018-11-05T00:55:19.692Z,13.60
2018-11-05T00:56:25.205Z,12.10
2018-11-05T00:57:31.730Z,12.90
2018-11-05T00:58:36.220Z,12.80
2018-11-05T00:59:41.725Z,13.40
2018-11-05T01:00:47.257Z,13.70
2018-11-05T01:01:52.741Z,13.70
2018-11-05T01:02:58.254Z,13.70
2018-11-05T01:04:04.768Z,13.80
2018-11-05T01:05:09.275Z,12.60
2018-11-05T01:06:14.806Z,13.90
2018-11-05T01:07:20.277Z,14.10
2018-11-05T01:08:25.806Z,14.80
2018-11-05T01:09:31.295Z,15.20
2018-11-05T01:10:37.822Z,16.40
2018-11-05T01:11:42.310Z,17.00
2018-11-05T01:12:47.822Z,16.10
2018-11-05T01:13:53.327Z,15.10
2018-11-05T01:14:58.840Z,16.30
2018-11-05T01:16:04.338Z,15.60
2018-11-05T01:17:10.864Z,14.40
2018-11-05T01:18:15.361Z,14.90
2018-11-05T01:19:20.866Z,13.60
2018-11-05T01:20:26.369Z,14.50
2018-11-05T01:21:31.878Z,15.00
2018-11-05T01:22:37.394Z,15.80
2018-11-05T01:23:43.934Z,15.40
2018-11-05T01:24:48.409Z,14.00
2018-11-05T01:25:53.930Z,13.80
2018-11-05T01:26:59.417Z,13.70
2018-11-05T01:28:04.932Z,13.70
2018-11-05T01:29:10.432Z,14.60
2018-11-05T01:30:16.965Z,14.80
2018-11-05T01:31:21.456Z,14.60
2018-11-05T01:32:26.970Z,14.40
2018-11-05T01:33:32.468Z,14.60
2018-11-05T01:34:37.979Z,14.50
2018-11-05T01:35:43.482Z,14.80
2018-11-05T01:36:49.995Z,14.90
2018-11-05T01:37:54.498Z,13.90
2018-11-05T01:39:00.011Z,14.00
2018-11-05T01:40:05.518Z,14.20
2018-11-05T01:41:11.020Z,14.40
2018-11-05T01:42:16.527Z,14.80
2018-11-05T01:43:23.046Z,14.60
2018-11-05T01:44:27.540Z,13.60
2018-11-05T01:45:33.045Z,12.70
2018-11-05T01:46:38.550Z,13.00
2018-11-05T01:47:44.058Z,12.30
2018-11-05T01:48:49.567Z,13.40
2018-11-05T01:49:56.086Z,12.90
2018-11-05T01:51:00.591Z,13.50
2018-11-05T01:52:06.096Z,12.80
2018-11-05T01:53:11.603Z,12.30
2018-11-05T01:54:17.097Z,12.30
2018-11-05T01:55:22.617Z,11.90
2018-11-05T01:56:29.127Z,11.60
2018-11-05T01:57:33.630Z,11.80
2018-11-05T01:58:39.131Z,12.30
2018-11-05T01:59:44.639Z,12.30
2018-11-05T02:00:50.147Z,11.60
2018-11-05T02:01:55.649Z,12.00
2018-11-05T02:03:02.173Z,12.10
2018-11-05T02:04:06.671Z,12.40
2018-11-05T02:05:12.184Z,12.30
2018-11-05T02:06:17.687Z,11.90
2018-11-05T02:07:23.190Z,12.50
2018-11-05T02:08:28.704Z,12.50
2018-11-05T02:09:35.222Z,13.40
2018-11-05T02:10:39.714Z,13.40
2018-11-05T02:11:45.219Z,13.40
2018-11-05T02:12:50.733Z,13.50
2018-11-05T02:13:56.241Z,13.40
2018-11-05T02:15:01.741Z,12.10
2018-11-05T02:16:08.329Z,12.80
2018-11-05T02:17:12.756Z,12.90
2018-11-05T02:18:18.267Z,13.70
2018-11-05T02:19:23.776Z,13.20
2018-11-05T02:20:29.287Z,14.20
2018-11-05T02:21:34.797Z,14.20
2018-11-05T02:22:41.304Z,14.70
2018-11-05T02:23:45.805Z,15.10
2018-11-05T02:24:51.309Z,14.10
2018-11-05T02:25:56.826Z,15.10
2018-11-05T02:27:02.352Z,15.80
2018-11-05T02:28:07.830Z,15.20
2018-11-05T02:29:14.353Z,14.80
2018-11-05T02:30:18.845Z,14.40
2018-11-05T02:31:24.349Z,14.40
2018-11-05T02:32:29.866Z,14.70
2018-11-05T02:33:35.385Z,14.50
2018-11-05T02:34:40.878Z,14.30
2018-11-05T02:35:47.398Z,13.60
2018-11-05T02:36:51.900Z,14.00
2018-11-05T02:37:57.402Z,14.30
2018-11-05T02:39:02.911Z,14.70
2018-11-05T02:40:08.427Z,14.70
2018-11-05T02:41:13.926Z,14.50
2018-11-05T02:42:20.440Z,14.30
2018-11-05T02:43:24.939Z,14.90
2018-11-05T02:44:30.451Z,13.70
2018-11-05T02:45:35.965Z,15.20
2018-11-05T02:46:41.469Z,14.10
2018-11-05T02:47:46.977Z,14.90
2018-11-05T02:48:53.505Z,12.90
2018-11-05T02:49:57.983Z,13.50
2018-11-05T02:51:03.500Z,13.50
2018-11-05T02:52:09.016Z,13.50
2018-11-05T02:53:14.513Z,14.70
2018-11-05T02:54:20.017Z,14.70
2018-11-05T02:55:26.533Z,15.00
2018-11-05T02:56:31.032Z,14.00
2018-11-05T02:57:36.546Z,13.30
2018-11-05T02:58:42.043Z,13.20
2018-11-05T02:59:47.553Z,13.70
2018-11-05T03:00:53.061Z,13.00
2018-11-05T03:01:59.574Z,13.10
2018-11-05T03:03:04.084Z,13.20
2018-11-05T03:04:09.588Z,14.20
2018-11-05T03:05:15.095Z,14.30
2018-11-05T03:06:20.600Z,14.10
2018-11-05T03:07:26.119Z,14.90
2018-11-05T03:08:32.635Z,14.10
2018-11-05T03:09:37.125Z,14.00
2018-11-05T03:10:42.629Z,13.30
2018-11-05T03:11:48.146Z,13.40
2018-11-05T03:12:53.648Z,13.50
2018-11-05T03:13:59.157Z,14.50
2018-11-05T03:15:05.679Z,14.80
2018-11-05T03:16:10.179Z,15.00
2018-11-05T03:17:15.686Z,14.40
2018-11-05T03:18:21.185Z,14.20
2018-11-05T03:19:26.691Z,15.40
2018-11-05T03:20:32.204Z,13.80
2018-11-05T03:21:38.718Z,14.50
2018-11-05T03:22:43.219Z,13.90
2018-11-05T03:23:48.746Z,13.80
2018-11-05T03:24:54.241Z,13.50
2018-11-05T03:25:59.742Z,13.90
2018-11-05T03:27:05.250Z,13.50
2018-11-05T03:28:11.762Z,13.00
2018-11-05T03:29:16.260Z,13.20
2018-11-05T03:30:21.773Z,13.50
2018-11-05T03:31:27.276Z,13.70
2018-11-05T03:32:32.782Z,13.70
2018-11-05T03:33:38.290Z,13.50
2018-11-05T03:34:44.811Z,14.20
2018-11-05T03:35:49.376Z,13.90
2018-11-05T03:36:54.810Z,12.40
2018-11-05T03:38:00.320Z,12.90
2018-11-05T03:39:05.841Z,13.40
2018-11-05T03:40:11.348Z,13.00
2018-11-05T03:41:17.852Z,13.60
2018-11-05T03:42:22.347Z,13.40
2018-11-05T03:43:27.868Z,13.20
2018-11-05T03:44:33.381Z,13.10
2018-11-05T03:45:38.877Z,13.30
2018-11-05T03:46:44.386Z,13.40
2018-11-05T03:47:50.903Z,13.20
2018-11-05T03:48:55.395Z,14.10
2018-11-05T03:50:00.901Z,13.50
2018-11-05T03:51:06.416Z,14.70
2018-11-05T03:52:11.914Z,14.10
2018-11-05T03:53:17.430Z,14.80
2018-11-05T03:54:23.951Z,13.50
2018-11-05T03:55:28.472Z,13.10
2018-11-05T03:56:34.006Z,14.50
2018-11-05T03:57:39.459Z,13.90
2018-11-05T03:58:44.969Z,14.10
2018-11-05T03:59:50.471Z,12.90
2018-11-05T04:00:56.990Z,13.20
2018-11-05T04:02:01.488Z,13.30
2018-11-05T04:03:07.029Z,13.20
2018-11-05T04:04:12.502Z,12.90
2018-11-05T04:05:18.009Z,12.70
2018-11-05T04:06:23.523Z,12.80
2018-11-05T04:07:30.035Z,13.10
2018-11-05T04:08:34.528Z,12.70
2018-11-05T04:09:40.043Z,13.40
2018-11-05T04:10:45.556Z,13.50
2018-11-05T04:11:51.064Z,13.50
2018-11-05T04:12:56.565Z,13.00
2018-11-05T04:14:03.079Z,13.20
2018-11-05T04:15:07.626Z,13.50
2018-11-05T04:16:13.134Z,13.60
2018-11-05T04:17:18.595Z,13.10
2018-11-05T04:18:24.101Z,12.70
2018-11-05T04:19:29.610Z,13.20
2018-11-05T04:20:36.128Z,14.30
2018-11-05T04:21:40.631Z,13.70
2018-11-05T04:22:46.127Z,13.90
2018-11-05T04:23:51.644Z,13.70
2018-11-05T04:24:57.145Z,14.30
2018-11-05T04:26:02.650Z,14.30
2018-11-05T04:27:09.171Z,13.50
2018-11-05T04:28:13.668Z,13.40
2018-11-05T04:29:19.172Z,13.10
2018-11-05T04:30:24.684Z,12.70
2018-11-05T04:31:30.218Z,12.70
2018-11-05T04:32:35.696Z,12.60
2018-11-05T04:33:42.218Z,12.30
2018-11-05T04:34:46.721Z,12.70
2018-11-05T04:35:52.224Z,12.80
2018-11-05T04:36:57.734Z,13.00
2018-11-05T04:38:03.240Z,13.00
2018-11-05T04:39:08.748Z,12.70
2018-11-05T04:40:15.265Z,12.90
2018-11-05T04:41:19.761Z,12.70
2018-11-05T04:42:25.269Z,12.60
2018-11-05T04:43:30.773Z,13.00
2018-11-05T04:44:36.280Z,12.80
2018-11-05T04:45:41.791Z,13.10
2018-11-05T04:46:48.316Z,12.80
2018-11-05T04:47:52.811Z,12.30
2018-11-05T04:48:58.322Z,12.40
2018-11-05T04:50:03.828Z,12.80
2018-11-05T04:51:09.329Z,12.40
2018-11-05T04:52:14.836Z,12.50
2018-11-05T04:53:21.354Z,12.70
2018-11-05T04:54:25.851Z,12.70
2018-11-05T04:55:31.367Z,12.20
2018-11-05T04:56:36.868Z,12.50
2018-11-05T04:57:42.391Z,13.10
2018-11-05T04:58:47.889Z,12.90
2018-11-05T04:59:54.408Z,12.70
2018-11-05T05:00:58.915Z,12.90
2018-11-05T05:02:04.400Z,13.40
2018-11-05T05:03:09.926Z,13.30
2018-11-05T05:04:15.421Z,12.60
2018-11-05T05:05:20.939Z,12.30
2018-11-05T05:06:27.449Z,12.40
2018-11-05T05:07:31.944Z,12.40
2018-11-05T05:08:37.449Z,12.90
2018-11-05T05:09:42.982Z,13.10
2018-11-05T05:10:48.472Z,13.00
2018-11-05T05:11:53.983Z,12.90
2018-11-05T05:13:00.498Z,12.70
2018-11-05T05:14:05.014Z,30.30
2018-11-05T05:15:10.497Z,13.20
2018-11-05T05:16:16.091Z,13.20
2018-11-05T05:17:21.526Z,14.40
2018-11-05T05:18:27.023Z,12.80
2018-11-05T05:19:33.535Z,11.90
2018-11-05T05:20:38.038Z,12.00
2018-11-05T05:21:43.539Z,12.50
2018-11-05T05:22:49.187Z,11.70
2018-11-05T05:23:54.572Z,12.00
2018-11-05T05:25:00.078Z,11.80
2018-11-05T05:26:06.592Z,11.30
2018-11-05T05:27:11.092Z,12.20
2018-11-05T05:28:16.587Z,11.50
2018-11-05T05:29:22.162Z,11.50
2018-11-05T05:30:27.608Z,11.80
2018-11-05T05:31:33.115Z,11.60
2018-11-05T05:32:39.642Z,11.80
2018-11-05T05:33:44.249Z,12.30
2018-11-05T05:34:49.635Z,12.60
2018-11-05T05:35:55.140Z,12.30
2018-11-05T05:37:00.651Z,12.20
2018-11-05T05:38:06.170Z,12.30
2018-11-05T05:39:12.681Z,12.40
2018-11-05T05:40:17.180Z,12.50
2018-11-05T05:41:22.747Z,12.00
2018-11-05T05:42:28.198Z,11.90
2018-11-05T05:43:33.704Z,12.10
2018-11-05T05:44:39.204Z,12.50
2018-11-05T05:45:45.734Z,12.50
2018-11-05T05:46:50.216Z,12.40
2018-11-05T05:47:55.731Z,12.50
2018-11-05T05:49:01.239Z,11.70
2018-11-05T05:50:06.806Z,11.60
2018-11-05T05:51:12.255Z,12.10
2018-11-05T05:52:18.772Z,12.00
2018-11-05T05:53:23.272Z,11.80
2018-11-05T05:54:28.773Z,11.40
2018-11-05T05:55:34.279Z,10.70
2018-11-05T05:56:39.786Z,11.50
2018-11-05T05:57:45.307Z,12.20
2018-11-05T05:58:51.825Z,11.60
2018-11-05T05:59:56.427Z,12.50
2018-11-05T06:01:01.836Z,11.50
2018-11-05T06:02:07.327Z,11.90
2018-11-05T06:03:12.843Z,12.80
2018-11-05T06:04:18.352Z,11.90
2018-11-05T06:05:24.860Z,12.30
2018-11-05T06:06:29.449Z,12.80
2018-11-05T06:07:34.871Z,12.20
2018-11-05T06:08:40.382Z,12.00
2018-11-05T06:09:45.885Z,12.00
2018-11-05T06:10:51.390Z,11.80
2018-11-05T06:11:57.903Z,12.30
2018-11-05T06:13:02.416Z,12.30
2018-11-05T06:14:07.911Z,12.40
2018-11-05T06:15:13.420Z,12.00
2018-11-05T06:16:18.929Z,12.60
2018-11-05T06:17:24.448Z,13.30
2018-11-05T06:18:30.954Z,12.80
2018-11-05T06:19:35.453Z,13.40
2018-11-05T06:20:40.957Z,12.40
2018-11-05T06:21:46.509Z,13.40
2018-11-05T06:22:51.972Z,14.00
2018-11-05T06:23:57.487Z,14.00
2018-11-05T06:25:03.998Z,14.90
2018-11-05T06:26:08.493Z,13.40
2018-11-05T06:27:14.013Z,13.30
2018-11-05T06:28:19.514Z,12.70
2018-11-05T06:29:25.019Z,13.30
2018-11-05T06:30:30.527Z,13.00
2018-11-05T06:31:37.044Z,12.10
2018-11-05T06:32:41.544Z,12.40
2018-11-05T06:33:47.058Z,12.10
2018-11-05T06:34:52.557Z,13.20
2018-11-05T06:35:58.064Z,12.80
2018-11-05T06:37:03.573Z,12.00
2018-11-05T06:38:10.105Z,13.30
2018-11-05T06:39:14.592Z,12.70
2018-11-05T06:40:20.102Z,12.60
2018-11-05T06:41:25.727Z,11.90
2018-11-05T06:42:31.106Z,12.50
2018-11-05T06:43:36.614Z,12.50
2018-11-05T06:44:43.169Z,12.70
2018-11-05T06:45:47.625Z,13.30
2018-11-05T06:46:53.141Z,12.20
2018-11-05T06:47:58.653Z,12.50
2018-11-05T06:49:04.188Z,12.40
2018-11-05T06:50:09.655Z,12.70
2018-11-05T06:51:16.192Z,12.70
2018-11-05T06:52:20.693Z,12.70
2018-11-05T06:53:26.182Z,11.90
2018-11-05T06:54:31.689Z,12.00
2018-11-05T06:55:37.199Z,12.50
2018-11-05T06:56:42.699Z,12.20
2018-11-05T06:57:49.339Z,13.10
2018-11-05T06:58:53.744Z,13.40
2018-11-05T06:59:59.228Z,13.00
2018-11-05T07:01:04.727Z,12.40
2018-11-05T07:02:10.249Z,12.60
2018-11-05T07:03:15.755Z,12.70
2018-11-05T07:04:22.270Z,12.70
2018-11-05T07:05:26.783Z,13.20
2018-11-05T07:06:32.280Z,12.70
2018-11-05T07:07:37.782Z,12.90
2018-11-05T07:08:43.283Z,12.70
2018-11-05T07:09:48.848Z,13.10
2018-11-05T07:10:55.312Z,13.20
2018-11-05T07:11:59.807Z,13.50
2018-11-05T07:13:05.310Z,13.30
2018-11-05T07:14:10.838Z,12.70
2018-11-05T07:15:16.341Z,12.90
2018-11-05T07:16:21.837Z,12.80
2018-11-05T07:17:28.368Z,13.30
2018-11-05T07:18:32.942Z,13.20
2018-11-05T07:19:38.359Z,12.60
2018-11-05T07:20:43.877Z,12.40
2018-11-05T07:21:49.393Z,12.20
2018-11-05T07:22:54.874Z,12.40
2018-11-05T07:24:01.428Z,11.80
2018-11-05T07:25:05.897Z,12.30
2018-11-05T07:26:11.403Z,12.90
2018-11-05T07:27:16.905Z,13.70
2018-11-05T07:28:22.413Z,12.60
2018-11-05T07:29:27.926Z,13.80
2018-11-05T07:30:34.440Z,13.70
2018-11-05T07:31:38.965Z,13.10
2018-11-05T07:32:44.457Z,13.90
2018-11-05T07:33:50.150Z,13.20
2018-11-05T07:34:55.466Z,12.80
2018-11-05T07:36:00.972Z,13.10
2018-11-05T07:37:07.490Z,14.20
2018-11-05T07:38:11.992Z,13.80
2018-11-05T07:39:17.497Z,13.80
2018-11-05T07:40:22.997Z,14.20
2018-11-05T07:41:28.517Z,14.00
2018-11-05T07:42:34.015Z,14.70
2018-11-05T07:43:40.549Z,14.10
2018-11-05T07:44:45.032Z,13.90
2018-11-05T07:45:50.540Z,13.80
2018-11-05T07:46:56.050Z,13.00
2018-11-05T07:48:01.582Z,13.40
2018-11-05T07:49:07.069Z,13.80
2018-11-05T07:50:13.695Z,12.20
2018-11-05T07:51:18.082Z,12.60
2018-11-05T07:52:23.595Z,12.80
2018-11-05T07:53:29.105Z,12.20
2018-11-05T07:54:34.615Z,12.10
2018-11-05T07:55:40.119Z,12.20
2018-11-05T07:56:46.704Z,12.60
2018-11-05T07:57:51.147Z,12.80
2018-11-05T07:58:56.640Z,13.50
2018-11-05T08:00:02.154Z,13.00
2018-11-05T08:01:07.659Z,13.10
2018-11-05T08:02:13.174Z,14.20
2018-11-05T08:03:19.694Z,13.70
2018-11-05T08:04:24.176Z,13.80
2018-11-05T08:05:29.691Z,13.70
2018-11-05T08:06:35.201Z,14.70
2018-11-05T08:07:40.706Z,15.70
2018-11-05T08:08:46.224Z,15.00
2018-11-05T08:09:52.755Z,15.10
2018-11-05T08:10:57.234Z,15.10
2018-11-05T08:12:02.737Z,16.10
2018-11-05T08:13:08.248Z,16.00
2018-11-05T08:14:13.816Z,16.00
2018-11-05T08:15:19.260Z,16.20
2018-11-05T08:16:25.787Z,16.10
2018-11-05T08:17:30.297Z,15.90
2018-11-05T08:18:35.787Z,16.10
2018-11-05T08:19:41.304Z,16.20
2018-11-05T08:20:46.807Z,17.00
2018-11-05T08:21:52.322Z,16.80
2018-11-05T08:22:58.838Z,16.10
2018-11-05T08:24:03.339Z,16.70
2018-11-05T08:25:08.843Z,16.20
2018-11-05T08:26:14.351Z,16.00
2018-11-05T08:27:19.863Z,16.10
2018-11-05T08:28:25.371Z,16.70
2018-11-05T08:29:31.887Z,17.00
2018-11-05T08:30:36.387Z,17.20
2018-11-05T08:31:41.902Z,16.10
2018-11-05T08:32:47.425Z,16.70
2018-11-05T08:33:52.928Z,17.20
2018-11-05T08:34:58.438Z,17.40
2018-11-05T08:36:04.940Z,18.10
2018-11-05T08:37:09.448Z,18.60
2018-11-05T08:38:14.966Z,17.40
2018-11-05T08:39:20.461Z,18.10
2018-11-05T08:40:26.050Z,18.80
2018-11-05T08:41:31.477Z,18.20
2018-11-05T08:42:37.996Z,18.40
2018-11-05T08:43:42.496Z,17.70
2018-11-05T08:44:48.010Z,19.10
2018-11-05T08:45:53.521Z,18.00
2018-11-05T08:46:59.081Z,18.10
2018-11-05T08:48:04.533Z,17.90
2018-11-05T08:49:11.055Z,17.80
2018-11-05T08:50:15.597Z,18.60
2018-11-05T08:51:21.557Z,18.90
2018-11-05T08:52:26.586Z,18.70
2018-11-05T08:53:32.083Z,19.10
2018-11-05T08:54:37.602Z,19.00
2018-11-05T08:55:44.114Z,19.70
2018-11-05T08:56:48.611Z,19.00
2018-11-05T08:57:54.155Z,19.00
2018-11-05T08:58:59.627Z,18.80
2018-11-05T09:00:05.153Z,18.90
2018-11-05T09:01:10.760Z,18.80
2018-11-05T09:02:17.174Z,19.80
2018-11-05T09:03:21.680Z,19.30
2018-11-05T09:04:27.195Z,19.30
2018-11-05T09:05:32.698Z,20.40
2018-11-05T09:06:38.200Z,20.20
2018-11-05T09:07:43.709Z,19.80
2018-11-05T09:08:50.230Z,20.40
2018-11-05T09:09:54.816Z,20.50
2018-11-05T09:11:00.564Z,21.10
2018-11-05T09:12:05.840Z,21.20
2018-11-05T09:13:11.265Z,21.50
2018-11-05T09:14:16.771Z,21.20
2018-11-05T09:15:23.289Z,22.10
2018-11-05T09:16:27.790Z,21.10
2018-11-05T09:17:33.307Z,21.40
2018-11-05T09:18:38.806Z,21.70
2018-11-05T09:19:44.315Z,21.60
2018-11-05T09:20:49.929Z,21.90
2018-11-05T09:21:56.374Z,22.00
2018-11-05T09:23:00.852Z,22.00
2018-11-05T09:24:06.361Z,21.60
2018-11-05T09:25:11.868Z,21.60
2018-11-05T09:26:17.376Z,22.10
2018-11-05T09:27:22.888Z,21.50
2018-11-05T09:28:29.406Z,22.30
2018-11-05T09:29:33.915Z,22.70
2018-11-05T09:30:39.416Z,21.80
2018-11-05T09:31:44.936Z,21.30
2018-11-05T09:32:50.435Z,22.50
2018-11-05T09:33:55.949Z,23.10
2018-11-05T09:35:02.474Z,21.60
2018-11-05T09:36:06.982Z,20.90
2018-11-05T09:37:12.489Z,20.90
2018-11-05T09:38:18.003Z,22.30
2018-11-05T09:39:23.519Z,22.30
2018-11-05T09:40:29.006Z,21.20
2018-11-05T09:41:35.524Z,22.10
2018-11-05T09:42:40.104Z,21.80
2018-11-05T09:43:45.550Z,21.60
2018-11-05T09:44:51.065Z,21.90
2018-11-05T09:45:56.561Z,22.60
2018-11-05T09:47:02.072Z,21.90
2018-11-05T09:48:08.589Z,22.50
2018-11-05T09:49:13.096Z,21.90
2018-11-05T09:50:18.680Z,22.10
2018-11-05T09:51:24.123Z,22.30
2018-11-05T09:52:29.627Z,21.60
2018-11-05T09:53:35.141Z,21.10
2018-11-05T09:54:41.655Z,21.10
2018-11-05T09:55:46.164Z,21.50
2018-11-05T09:56:51.673Z,20.80
2018-11-05T09:57:57.186Z,21.00
2018-11-05T09:59:02.690Z,21.10
2018-11-05T10:00:08.211Z,21.60
2018-11-05T10:01:14.756Z,20.50
2018-11-05T10:02:19.232Z,22.00
2018-11-05T10:03:24.947Z,22.60
2018-11-05T10:04:30.589Z,21.60
2018-11-05T10:05:35.804Z,21.50
2018-11-05T10:06:41.261Z,21.50
2018-11-05T10:07:47.780Z,21.90
2018-11-05T10:08:52.280Z,20.60
2018-11-05T10:09:57.798Z,20.00
2018-11-05T10:11:03.334Z,21.20
2018-11-05T10:12:08.841Z,20.20
2018-11-05T10:13:14.331Z,21.20
2018-11-05T10:14:20.858Z,19.90
2018-11-05T10:15:25.366Z,19.70
2018-11-05T10:16:30.881Z,20.50
2018-11-05T10:17:36.370Z,20.20
2018-11-05T10:18:41.884Z,19.80
2018-11-05T10:19:47.403Z,19.30
2018-11-05T10:20:53.924Z,19.10
2018-11-05T10:21:58.420Z,18.80
2018-11-05T10:23:03.929Z,18.40
2018-11-05T10:24:09.443Z,17.90
2018-11-05T10:25:15.053Z,18.30
2018-11-05T10:26:20.518Z,17.50
2018-11-05T10:27:26.989Z,18.60
2018-11-05T10:28:31.513Z,18.70
2018-11-05T10:29:37.012Z,17.90
2018-11-05T10:30:42.522Z,16.70
2018-11-05T10:31:48.017Z,14.60
2018-11-05T10:32:53.603Z,13.30
2018-11-05T10:34:00.060Z,12.20
2018-11-05T10:35:04.552Z,12.20
2018-11-05T10:36:10.076Z,12.70
2018-11-05T10:37:15.582Z,12.70
2018-11-05T10:38:21.077Z,12.80
2018-11-05T10:39:26.597Z,12.40
2018-11-05T10:40:33.236Z,12.40
2018-11-05T10:41:37.635Z,12.50
2018-11-05T10:42:43.143Z,12.20
2018-11-05T10:43:48.639Z,11.60
2018-11-05T10:44:54.159Z,11.30
2018-11-05T10:45:59.682Z,10.70
2018-11-05T10:47:06.195Z,9.40
2018-11-05T10:48:10.709Z,8.90
2018-11-05T10:49:16.227Z,9.60
2018-11-05T10:50:21.722Z,10.10
2018-11-05T10:51:27.412Z,9.80
2018-11-05T10:52:32.756Z,9.90
2018-11-05T10:53:39.264Z,9.50
2018-11-05T10:54:43.765Z,9.40
2018-11-05T10:55:49.304Z,9.90
2018-11-05T10:56:54.858Z,9.70
2018-11-05T10:58:00.323Z,9.60
2018-11-05T10:59:05.819Z,9.20
2018-11-05T11:00:12.330Z,9.20
2018-11-05T11:01:16.843Z,9.00
2018-11-05T11:02:22.354Z,9.30
2018-11-05T11:03:27.870Z,8.50
2018-11-05T11:04:33.475Z,9.60
2018-11-05T11:05:38.895Z,8.90
2018-11-05T11:06:45.426Z,9.30
2018-11-05T11:07:49.903Z,9.30
2018-11-05T11:08:55.425Z,9.20
2018-11-05T11:10:00.938Z,10.20
2018-11-05T11:11:06.460Z,9.60
2018-11-05T11:12:11.972Z,10.10
2018-11-05T11:13:18.498Z,9.70
2018-11-05T11:14:22.989Z,9.90
2018-11-05T11:15:28.502Z,9.90
2018-11-05T11:16:34.011Z,11.00
2018-11-05T11:17:39.523Z,10.10
2018-11-05T11:18:45.048Z,9.70
2018-11-05T11:19:51.567Z,9.60
2018-11-05T11:20:56.061Z,10.20
2018-11-05T11:22:01.595Z,10.30
2018-11-05T11:23:07.091Z,10.10
2018-11-05T11:24:12.610Z,10.10
2018-11-05T11:25:18.114Z,10.10
2018-11-05T11:26:24.655Z,10.40
2018-11-05T11:27:29.150Z,10.90
2018-11-05T11:28:34.715Z,10.40
2018-11-05T11:29:40.168Z,10.30
2018-11-05T11:30:45.684Z,10.50
2018-11-05T11:31:51.199Z,10.70
2018-11-05T11:32:57.723Z,10.50
2018-11-05T11:34:02.220Z,10.40
2018-11-05T11:35:07.750Z,10.40
2018-11-05T11:36:13.251Z,10.60
2018-11-05T11:37:18.854Z,10.40
2018-11-05T11:38:24.275Z,10.80
2018-11-05T11:39:30.791Z,10.70
2018-11-05T11:40:35.304Z,10.50
2018-11-05T11:41:40.818Z,10.70
2018-11-05T11:42:46.316Z,10.60
2018-11-05T11:43:51.845Z,10.00
2018-11-05T11:44:57.437Z,10.30
2018-11-05T11:46:03.913Z,9.80
2018-11-05T11:47:08.403Z,9.40
2018-11-05T11:48:13.889Z,9.70
2018-11-05T11:49:19.420Z,8.90
2018-11-05T11:50:24.917Z,9.50
2018-11-05T11:51:30.447Z,9.00
2018-11-05T11:52:36.994Z,9.00
2018-11-05T11:53:41.457Z,8.80
2018-11-05T11:54:46.992Z,8.00
2018-11-05T11:55:52.485Z,8.10
2018-11-05T11:56:58.000Z,8.00
2018-11-05T11:58:03.525Z,8.20
2018-11-05T11:59:10.040Z,7.80
2018-11-05T12:00:14.577Z,7.90
2018-11-05T12:01:20.048Z,7.90
2018-11-05T12:02:25.583Z,8.40
2018-11-05T12:03:31.091Z,8.20
2018-11-05T12:04:36.600Z,7.80
2018-11-05T12:05:43.114Z,7.70
2018-11-05T12:06:47.619Z,11.60
2018-11-05T12:07:53.133Z,16.80
2018-11-05T12:08:58.643Z,16.50
2018-11-05T12:10:04.165Z,16.70
2018-11-05T12:11:09.677Z,16.90
2018-11-05T12:12:16.203Z,17.30
2018-11-05T12:13:20.706Z,17.50
2018-11-05T12:14:26.296Z,17.30
2018-11-05T12:15:31.743Z,17.20
2018-11-05T12:16:37.245Z,17.40
2018-11-05T12:17:43.999Z,18.10
2018-11-05T12:18:49.281Z,18.00
2018-11-05T12:19:53.787Z,17.20
2018-11-05T12:20:59.307Z,18.10
2018-11-05T12:22:04.812Z,18.30
2018-11-05T12:23:10.321Z,18.00
2018-11-05T12:24:15.848Z,18.10
2018-11-05T12:25:22.365Z,17.20
2018-11-05T12:26:26.892Z,17.50
2018-11-05T12:27:32.404Z,16.60
2018-11-05T12:28:37.909Z,16.90
2018-11-05T12:29:43.413Z,15.80
2018-11-05T12:30:48.928Z,16.40
2018-11-05T12:31:55.461Z,16.30
2018-11-05T12:32:59.968Z,16.20
2018-11-05T12:34:05.483Z,16.20
2018-11-05T12:35:10.990Z,15.90
2018-11-05T12:36:16.517Z,16.10
2018-11-05T12:37:22.019Z,16.30
2018-11-05T12:38:28.552Z,15.40
2018-11-05T12:39:33.064Z,15.10
2018-11-05T12:40:38.611Z,14.70
2018-11-05T12:41:44.087Z,14.80
2018-11-05T12:42:49.619Z,14.40
2018-11-05T12:43:55.130Z,14.10
2018-11-05T12:45:01.753Z,14.40
2018-11-05T12:46:06.148Z,14.20
2018-11-05T12:47:11.667Z,13.50
2018-11-05T12:48:17.188Z,13.20
2018-11-05T12:49:22.712Z,13.70
2018-11-05T12:50:28.275Z,13.50
2018-11-05T12:51:34.747Z,13.80
2018-11-05T12:52:39.254Z,12.90
2018-11-05T12:53:44.782Z,12.90
2018-11-05T12:54:50.294Z,13.20
2018-11-05T12:55:55.815Z,13.00
2018-11-05T12:57:01.322Z,12.70
2018-11-05T12:58:07.863Z,12.80
2018-11-05T12:59:12.376Z,12.80
2018-11-05T13:00:17.879Z,12.90
2018-11-05T13:01:23.392Z,12.80
2018-11-05T13:02:28.929Z,12.00
2018-11-05T13:03:34.436Z,11.90
2018-11-05T13:04:40.986Z,12.00
2018-11-05T13:05:45.464Z,13.60
2018-11-05T13:06:51.034Z,12.70
2018-11-05T13:07:56.506Z,12.70
2018-11-05T13:09:02.017Z,12.60
2018-11-05T13:10:07.528Z,11.80
2018-11-05T13:11:14.062Z,10.90
2018-11-05T13:12:18.567Z,10.90
2018-11-05T13:13:24.095Z,10.10
2018-11-05T13:14:29.603Z,10.10
2018-11-05T13:15:35.120Z,10.10
2018-11-05T13:16:40.641Z,10.20
2018-11-05T13:17:47.190Z,10.30
2018-11-05T13:18:51.671Z,10.60
2018-11-05T13:19:57.186Z,10.30
2018-11-05T13:21:02.701Z,9.60
2018-11-05T13:22:08.271Z,10.30
2018-11-05T13:23:13.741Z,10.40
2018-11-05T13:24:21.136Z,11.00
2018-11-05T13:25:24.797Z,10.10
2018-11-05T13:26:30.296Z,10.90
2018-11-05T13:27:35.811Z,10.20
2018-11-05T13:28:41.336Z,10.20
2018-11-05T13:29:46.928Z,10.30
2018-11-05T13:30:53.379Z,10.10
2018-11-05T13:31:57.893Z,10.50
2018-11-05T13:33:03.400Z,10.10
2018-11-05T13:34:08.933Z,10.10
2018-11-05T13:35:14.433Z,10.80
2018-11-05T13:36:19.976Z,10.20
2018-11-05T13:37:26.856Z,10.80
2018-11-05T13:38:31.024Z,10.70
2018-11-05T13:39:36.512Z,11.00
2018-11-05T13:40:42.020Z,11.00
2018-11-05T13:41:47.538Z,10.80
2018-11-05T13:42:53.061Z,10.90
2018-11-05T13:43:59.588Z,10.40
2018-11-05T13:45:04.107Z,10.80
2018-11-05T13:46:09.922Z,10.60
2018-11-05T13:47:15.534Z,10.90
2018-11-05T13:48:20.884Z,10.60
2018-11-05T13:49:26.239Z,11.70
2018-11-05T13:50:32.699Z,11.00
2018-11-05T13:51:37.192Z,9.90
2018-11-05T13:52:42.768Z,10.90
2018-11-05T13:53:48.226Z,10.50
2018-11-05T13:54:53.871Z,11.00
2018-11-05T13:55:59.259Z,11.00
2018-11-05T13:57:05.779Z,11.50
2018-11-05T13:58:10.284Z,11.40
2018-11-05T13:59:15.809Z,10.50
2018-11-05T14:00:21.321Z,11.10
2018-11-05T14:01:26.833Z,10.80
2018-11-05T14:02:32.363Z,11.10
2018-11-05T14:03:38.898Z,11.10
2018-11-05T14:04:43.384Z,10.90
2018-11-05T14:05:48.980Z,11.10